createdAt,value
2017-12-15T00:02:09.471Z,14.20
2017-12-15T00:04:38.510Z,14.10
2017-12-15T00:07:07.351Z,14.10
2017-12-15T00:09:36.384Z,14.10
2017-12-15T00:12:05.544Z,14.10
2017-12-15T00:14:34.539Z,14.00
2017-12-15T00:17:03.429Z,14.00
2017-12-15T00:19:32.308Z,14.00
2017-12-15T00:22:01.216Z,14.10
2017-12-15T00:24:30.717Z,14.20
2017-12-15T00:26:59.404Z,14.20
2017-12-15T00:29:28.292Z,14.20
2017-12-15T00:31:57.390Z,14.20
2017-12-15T00:34:26.278Z,14.30
2017-12-15T00:36:55.174Z,14.30
2017-12-15T00:39:24.062Z,14.30
2017-12-15T00:41:53.169Z,14.30
2017-12-15T00:44:22.316Z,14.30
2017-12-15T00:46:51.136Z,14.30
2017-12-15T00:49:19.858Z,14.30
2017-12-15T00:51:48.612Z,14.30
2017-12-15T00:54:18.254Z,14.30
2017-12-15T00:56:47.243Z,14.20
2017-12-15T00:59:16.324Z,14.20
2017-12-15T01:01:45.718Z,14.30
2017-12-15T01:04:14.867Z,14.30
2017-12-15T01:06:43.694Z,14.30
2017-12-15T01:09:12.610Z,14.40
2017-12-15T01:11:41.511Z,14.40
2017-12-15T01:14:10.998Z,14.30
2017-12-15T01:16:39.988Z,14.30
2017-12-15T01:19:08.879Z,14.30
2017-12-15T01:21:39.156Z,14.30
2017-12-15T01:24:10.068Z,14.30
2017-12-15T01:26:39.035Z,14.20
2017-12-15T01:29:09.017Z,14.30
2017-12-15T01:31:38.083Z,14.30
2017-12-15T01:34:07.041Z,14.20
2017-12-15T01:36:36.028Z,14.20
2017-12-15T01:39:05.167Z,14.20
2017-12-15T01:41:34.935Z,14.20
2017-12-15T01:44:04.097Z,14.20
2017-12-15T01:46:33.032Z,14.20
2017-12-15T01:49:01.819Z,14.20
2017-12-15T01:51:30.962Z,14.20
2017-12-15T01:53:59.803Z,14.20
2017-12-15T01:56:28.697Z,14.20
2017-12-15T01:58:57.793Z,14.20
2017-12-15T02:01:26.887Z,14.10
2017-12-15T02:03:55.679Z,14.10
2017-12-15T02:06:24.667Z,14.10
2017-12-15T02:08:54.383Z,14.10
2017-12-15T02:11:23.479Z,14.10
2017-12-15T02:13:53.198Z,14.10
2017-12-15T02:16:22.747Z,14.10
2017-12-15T02:18:51.587Z,14.10
2017-12-15T02:21:21.288Z,14.00
2017-12-15T02:23:50.206Z,14.00
2017-12-15T02:26:19.071Z,14.00
2017-12-15T02:28:47.964Z,14.00
2017-12-15T02:31:17.467Z,14.00
2017-12-15T02:33:46.164Z,14.00
2017-12-15T02:36:15.334Z,13.90
2017-12-15T02:38:44.504Z,13.90
2017-12-15T02:41:13.957Z,13.90
2017-12-15T02:43:42.741Z,13.90
2017-12-15T02:46:11.327Z,13.80
2017-12-15T02:48:40.118Z,13.90
2017-12-15T02:51:08.904Z,13.90
2017-12-15T02:53:37.589Z,13.90
2017-12-15T02:56:06.286Z,13.90
2017-12-15T02:58:35.102Z,13.80
2017-12-15T03:01:03.853Z,13.80
2017-12-15T03:03:32.743Z,13.70
2017-12-15T03:06:01.744Z,13.70
2017-12-15T03:08:30.316Z,13.70
2017-12-15T03:10:58.925Z,13.70
2017-12-15T03:13:27.535Z,13.80
2017-12-15T03:15:56.876Z,13.80
2017-12-15T03:18:25.475Z,13.80
2017-12-15T03:20:54.080Z,13.90
2017-12-15T03:23:22.655Z,13.90
2017-12-15T03:25:51.215Z,13.90
2017-12-15T03:28:19.876Z,13.90
2017-12-15T03:30:49.233Z,13.90
2017-12-15T03:33:18.002Z,13.80
2017-12-15T03:35:46.899Z,13.90
2017-12-15T03:38:15.681Z,13.90
2017-12-15T03:40:44.469Z,13.90
2017-12-15T03:43:13.265Z,13.90
2017-12-15T03:45:41.945Z,13.90
2017-12-15T03:48:10.636Z,13.90
2017-12-15T03:50:39.242Z,13.80
2017-12-15T03:53:08.594Z,13.90
2017-12-15T03:55:37.170Z,13.80
2017-12-15T03:58:05.779Z,13.80
2017-12-15T04:00:34.574Z,13.80
2017-12-15T04:03:04.085Z,13.80
2017-12-15T04:05:32.980Z,13.80
2017-12-15T04:08:01.658Z,13.80
2017-12-15T04:10:30.514Z,13.80
2017-12-15T04:12:59.288Z,13.80
2017-12-15T04:15:28.127Z,13.80
2017-12-15T04:17:56.822Z,13.70
2017-12-15T04:20:25.703Z,13.70
2017-12-15T04:22:54.396Z,13.70
2017-12-15T04:25:23.077Z,13.70
2017-12-15T04:27:51.971Z,13.60
2017-12-15T04:30:20.878Z,13.60
2017-12-15T04:32:49.747Z,13.70
2017-12-15T04:35:19.144Z,13.60
2017-12-15T04:37:48.547Z,13.60
2017-12-15T04:40:17.179Z,13.60
2017-12-15T04:42:45.821Z,13.60
2017-12-15T04:45:14.515Z,13.60
2017-12-15T04:47:43.305Z,13.60
2017-12-15T04:50:12.188Z,13.50
2017-12-15T04:52:40.878Z,13.50
2017-12-15T04:55:09.769Z,13.50
2017-12-15T04:57:38.655Z,13.50
2017-12-15T05:00:07.548Z,13.40
2017-12-15T05:02:37.212Z,13.40
2017-12-15T05:05:06.866Z,13.40
2017-12-15T05:07:36.371Z,13.40
2017-12-15T05:10:05.265Z,13.50
2017-12-15T05:12:34.055Z,13.50
2017-12-15T05:15:02.738Z,13.50
2017-12-15T05:17:31.629Z,13.50
2017-12-15T05:20:00.626Z,13.50
2017-12-15T05:22:29.278Z,13.50
2017-12-15T05:24:57.893Z,13.50
2017-12-15T05:27:26.534Z,13.50
2017-12-15T05:29:55.155Z,13.60
2017-12-15T05:32:23.746Z,13.60
2017-12-15T05:34:52.430Z,13.50
2017-12-15T05:37:21.829Z,13.50
2017-12-15T05:39:50.486Z,13.50
2017-12-15T05:42:19.924Z,13.50
2017-12-15T05:44:48.822Z,13.50
2017-12-15T05:47:17.504Z,13.50
2017-12-15T05:49:46.342Z,13.50
2017-12-15T05:52:14.930Z,13.50
2017-12-15T05:54:43.560Z,13.50
2017-12-15T05:57:13.321Z,13.50
2017-12-15T05:59:42.775Z,13.40
2017-12-15T06:02:11.352Z,13.40
2017-12-15T06:04:40.003Z,13.40
2017-12-15T06:07:08.591Z,13.40
2017-12-15T06:09:37.231Z,13.50
2017-12-15T06:12:05.848Z,13.50
2017-12-15T06:14:35.192Z,13.40
2017-12-15T06:17:03.987Z,13.40
2017-12-15T06:19:32.690Z,13.40
2017-12-15T06:22:01.365Z,13.40
2017-12-15T06:24:29.946Z,13.30
2017-12-15T06:26:58.562Z,13.30
2017-12-15T06:29:27.215Z,13.30
2017-12-15T06:31:55.911Z,13.20
2017-12-15T06:34:24.551Z,13.20
2017-12-15T06:36:53.185Z,13.20
2017-12-15T06:39:21.846Z,13.20
2017-12-15T06:41:50.472Z,13.10
2017-12-15T06:44:19.146Z,13.10
2017-12-15T06:46:47.938Z,13.10
2017-12-15T06:49:16.788Z,13.10
2017-12-15T06:51:45.496Z,13.10
2017-12-15T06:54:14.149Z,13.10
2017-12-15T06:56:42.823Z,13.10
2017-12-15T06:59:11.460Z,13.10
2017-12-15T07:01:40.085Z,13.10
2017-12-15T07:04:09.490Z,13.10
2017-12-15T07:06:38.837Z,13.10
2017-12-15T07:09:07.393Z,13.00
2017-12-15T07:11:36.058Z,13.10
2017-12-15T07:14:04.691Z,13.10
2017-12-15T07:16:33.466Z,13.10
2017-12-15T07:19:02.196Z,13.10
2017-12-15T07:21:30.958Z,13.10
2017-12-15T07:23:59.532Z,13.10
2017-12-15T07:26:28.132Z,13.20
2017-12-15T07:28:56.696Z,13.20
2017-12-15T07:31:25.295Z,13.20
2017-12-15T07:33:53.918Z,13.30
2017-12-15T07:36:22.546Z,13.30
2017-12-15T07:38:51.145Z,13.20
2017-12-15T07:41:20.598Z,13.20
2017-12-15T07:43:50.303Z,13.20
2017-12-15T07:46:19.151Z,13.20
2017-12-15T07:48:47.838Z,13.20
2017-12-15T07:51:16.483Z,13.20
2017-12-15T07:53:45.127Z,13.30
2017-12-15T07:56:13.892Z,13.30
2017-12-15T07:58:42.684Z,13.30
2017-12-15T08:01:11.470Z,13.30
2017-12-15T08:03:40.167Z,13.40
2017-12-15T08:06:08.842Z,13.40
2017-12-15T08:08:37.447Z,13.50
2017-12-15T08:11:06.169Z,13.60
2017-12-15T08:13:34.766Z,13.60
2017-12-15T08:16:03.338Z,13.80
2017-12-15T08:18:32.074Z,13.90
2017-12-15T08:21:00.793Z,13.90
2017-12-15T08:23:29.390Z,13.90
2017-12-15T08:25:58.792Z,13.90
2017-12-15T08:28:27.368Z,13.90
2017-12-15T08:30:56.761Z,14.10
2017-12-15T08:33:25.492Z,14.00
2017-12-15T08:35:54.106Z,14.00
2017-12-15T08:38:22.686Z,14.00
2017-12-15T08:40:51.372Z,14.00
2017-12-15T08:43:20.057Z,13.90
2017-12-15T08:45:48.729Z,13.90
2017-12-15T08:48:17.635Z,13.80
2017-12-15T08:50:47.690Z,13.80
2017-12-15T08:53:16.402Z,13.80
2017-12-15T08:55:45.817Z,13.80
2017-12-15T08:58:14.426Z,13.70
2017-12-15T09:00:43.935Z,13.70
2017-12-15T09:03:13.391Z,13.70
2017-12-15T09:05:41.989Z,13.70
2017-12-15T09:08:10.631Z,13.80
2017-12-15T09:10:39.279Z,13.90
2017-12-15T09:13:08.081Z,13.90
2017-12-15T09:15:38.201Z,14.10
2017-12-15T09:18:07.102Z,14.10
2017-12-15T09:20:35.732Z,14.10
2017-12-15T09:23:04.463Z,14.20
2017-12-15T09:25:33.314Z,14.20
2017-12-15T09:28:02.070Z,14.30
2017-12-15T09:30:31.546Z,14.40
2017-12-15T09:33:00.167Z,14.40
2017-12-15T09:35:28.806Z,14.40
2017-12-15T09:37:57.412Z,14.50
2017-12-15T09:40:26.060Z,14.50
2017-12-15T09:42:54.663Z,14.60
2017-12-15T09:45:23.253Z,14.60
2017-12-15T09:47:52.125Z,14.60
2017-12-15T09:50:20.788Z,14.60
2017-12-15T09:52:49.408Z,14.70
2017-12-15T09:55:18.038Z,14.80
2017-12-15T09:57:47.510Z,14.80
2017-12-15T10:00:16.183Z,14.70
2017-12-15T10:02:45.094Z,14.80
2017-12-15T10:05:13.770Z,14.70
2017-12-15T10:07:42.452Z,14.70
2017-12-15T10:10:11.178Z,14.70
2017-12-15T10:12:39.941Z,14.80
2017-12-15T10:15:08.544Z,14.70
2017-12-15T10:17:37.166Z,14.70
2017-12-15T10:20:06.557Z,14.80
2017-12-15T10:22:35.243Z,14.80
2017-12-15T10:25:03.963Z,14.80
2017-12-15T10:27:32.649Z,14.80
2017-12-15T10:30:01.254Z,14.80
2017-12-15T10:32:29.876Z,14.90
2017-12-15T10:34:58.482Z,14.90
2017-12-15T10:37:27.828Z,15.00
2017-12-15T10:39:56.445Z,15.00
2017-12-15T10:42:25.902Z,15.00
2017-12-15T10:44:54.496Z,15.00
2017-12-15T10:47:23.377Z,15.10
2017-12-15T10:49:52.033Z,15.10
2017-12-15T10:52:20.608Z,15.10
2017-12-15T10:54:49.999Z,15.10
2017-12-15T10:57:18.618Z,15.10
2017-12-15T10:59:47.187Z,15.20
2017-12-15T11:02:16.634Z,15.30
2017-12-15T11:04:45.206Z,15.30
2017-12-15T11:07:14.552Z,15.60
2017-12-15T11:09:43.192Z,15.60
2017-12-15T11:12:11.787Z,15.70
2017-12-15T11:14:41.501Z,15.80
2017-12-15T11:17:19.288Z,15.90
2017-12-15T11:19:48.078Z,15.90
2017-12-15T11:22:16.759Z,16.10
2017-12-15T11:24:45.446Z,16.10
2017-12-15T11:27:14.125Z,15.80
2017-12-15T11:29:42.756Z,15.80
2017-12-15T11:32:11.498Z,15.80
2017-12-15T11:34:40.146Z,15.60
2017-12-15T11:37:09.929Z,15.60
2017-12-15T11:39:38.692Z,15.50
2017-12-15T11:42:07.390Z,15.70
2017-12-15T11:44:36.017Z,15.70
2017-12-15T11:47:04.832Z,15.70
2017-12-15T11:49:33.540Z,15.50
2017-12-15T11:52:02.329Z,15.50
2017-12-15T11:54:30.974Z,15.50
2017-12-15T11:56:59.619Z,15.60
2017-12-15T11:59:28.250Z,15.60
2017-12-15T12:01:57.675Z,15.50
2017-12-15T12:04:26.244Z,15.50
2017-12-15T12:06:54.849Z,15.30
2017-12-15T12:09:23.539Z,15.30
2017-12-15T12:11:52.185Z,15.30
2017-12-15T12:14:20.856Z,15.30
2017-12-15T12:16:49.567Z,15.30
2017-12-15T12:19:18.287Z,15.30
2017-12-15T12:21:47.858Z,15.40
2017-12-15T12:24:17.330Z,15.40
2017-12-15T12:26:45.942Z,15.40
2017-12-15T12:29:14.667Z,15.40
2017-12-15T12:31:43.352Z,15.40
2017-12-15T12:34:12.040Z,15.50
2017-12-15T12:36:40.683Z,15.50
2017-12-15T12:39:09.415Z,15.60
2017-12-15T12:41:38.006Z,15.60
2017-12-15T12:44:07.513Z,15.50
2017-12-15T12:46:36.288Z,15.40
2017-12-15T12:49:04.870Z,15.40
2017-12-15T12:51:33.661Z,15.60
2017-12-15T12:54:02.300Z,15.80
2017-12-15T12:56:30.962Z,15.60
2017-12-15T12:58:59.569Z,15.30
2017-12-15T13:01:28.304Z,14.90
2017-12-15T13:03:56.894Z,14.60
2017-12-15T13:06:25.678Z,14.60
2017-12-15T13:08:54.567Z,14.40
2017-12-15T13:11:23.146Z,14.30
2017-12-15T13:13:51.940Z,14.10
2017-12-15T13:16:20.634Z,14.00
2017-12-15T13:18:49.928Z,14.10
2017-12-15T13:21:18.624Z,14.10
2017-12-15T13:23:47.505Z,14.20
2017-12-15T13:26:16.402Z,14.20
2017-12-15T13:28:45.043Z,14.10
2017-12-15T13:31:13.832Z,14.20
2017-12-15T13:33:43.319Z,14.20
2017-12-15T13:36:11.948Z,14.10
2017-12-15T13:38:40.624Z,14.10
2017-12-15T13:41:09.298Z,14.10
2017-12-15T13:43:37.969Z,13.90
2017-12-15T13:46:07.440Z,14.00
2017-12-15T13:48:36.063Z,13.90
2017-12-15T13:51:05.474Z,13.70
2017-12-15T13:53:34.180Z,13.70
2017-12-15T13:56:02.779Z,13.60
2017-12-15T13:58:31.331Z,13.50
2017-12-15T14:00:59.960Z,13.50
2017-12-15T14:03:28.584Z,13.50
2017-12-15T14:05:57.942Z,13.40
2017-12-15T14:08:26.561Z,13.40
2017-12-15T14:10:55.164Z,11.40
2017-12-15T14:13:24.526Z,13.50
2017-12-15T14:15:53.275Z,13.50
2017-12-15T14:18:21.946Z,13.40
2017-12-15T14:20:50.569Z,13.40
2017-12-15T14:23:19.204Z,13.40
2017-12-15T14:25:47.848Z,13.40
2017-12-15T14:28:16.501Z,13.40
2017-12-15T14:30:45.171Z,13.40
2017-12-15T14:33:14.607Z,13.40
2017-12-15T14:35:44.062Z,13.30
2017-12-15T14:38:12.743Z,13.30
2017-12-15T14:40:41.327Z,13.30
2017-12-15T14:43:10.734Z,13.40
2017-12-15T14:45:39.573Z,13.40
2017-12-15T14:48:08.267Z,13.30
2017-12-15T14:50:36.866Z,13.40
2017-12-15T14:53:05.634Z,13.50
2017-12-15T14:55:34.459Z,13.50
2017-12-15T14:58:03.074Z,13.50
2017-12-15T15:00:31.821Z,13.40
2017-12-15T15:03:00.582Z,13.30
2017-12-15T15:05:29.180Z,13.30
2017-12-15T15:07:57.957Z,13.30
2017-12-15T15:10:26.636Z,13.40
2017-12-15T15:12:55.327Z,13.50
2017-12-15T15:15:24.010Z,13.50
2017-12-15T15:17:52.666Z,13.60
2017-12-15T15:20:22.106Z,14.70
2017-12-15T15:22:50.751Z,14.70
2017-12-15T15:25:19.412Z,14.10
2017-12-15T15:27:48.078Z,13.90
2017-12-15T15:30:16.700Z,13.80
2017-12-15T15:32:45.364Z,13.90
2017-12-15T15:35:14.119Z,13.90
2017-12-15T15:37:43.214Z,13.90
2017-12-15T15:40:11.997Z,13.90
2017-12-15T15:42:40.903Z,13.80
2017-12-15T15:45:09.833Z,13.90
2017-12-15T15:47:38.595Z,13.90
2017-12-15T15:50:07.463Z,13.80
2017-12-15T15:52:36.263Z,13.80
2017-12-15T15:55:05.093Z,13.80
2017-12-15T15:57:33.822Z,13.80
2017-12-15T16:00:02.603Z,13.90
2017-12-15T16:02:31.318Z,13.70
2017-12-15T16:05:00.080Z,13.50
2017-12-15T16:07:28.901Z,13.30
2017-12-15T16:09:58.349Z,13.20
2017-12-15T16:12:27.108Z,13.10
2017-12-15T16:14:55.880Z,13.10
2017-12-15T16:17:25.298Z,13.00
2017-12-15T16:19:53.942Z,13.00
2017-12-15T16:22:22.691Z,12.90
2017-12-15T16:24:51.347Z,12.80
2017-12-15T16:27:20.023Z,12.80
2017-12-15T16:29:48.731Z,12.80
2017-12-15T16:32:17.346Z,12.80
2017-12-15T16:34:46.061Z,12.80
2017-12-15T16:37:14.875Z,12.70
2017-12-15T16:39:44.484Z,12.70
2017-12-15T16:42:13.170Z,12.60
2017-12-15T16:44:41.825Z,12.60
2017-12-15T16:47:10.479Z,12.70
2017-12-15T16:49:39.212Z,12.70
2017-12-15T16:52:08.009Z,12.60
2017-12-15T16:54:37.494Z,12.60
2017-12-15T16:57:06.321Z,12.60
2017-12-15T16:59:35.121Z,12.60
2017-12-15T17:02:04.637Z,12.50
2017-12-15T17:04:34.118Z,12.50
2017-12-15T17:07:03.671Z,12.50
2017-12-15T17:09:32.473Z,12.50
2017-12-15T17:12:01.775Z,12.50
2017-12-15T17:14:36.244Z,12.50
2017-12-15T17:17:05.230Z,12.50
2017-12-15T17:19:34.816Z,12.50
2017-12-15T17:22:04.524Z,9.80
2017-12-15T17:24:34.052Z,12.50
2017-12-15T17:27:03.483Z,12.50
2017-12-15T17:29:33.140Z,12.60
2017-12-15T17:32:02.991Z,12.60
2017-12-15T17:34:40.092Z,12.60
2017-12-15T17:37:08.848Z,12.50
2017-12-15T17:39:37.512Z,12.50
2017-12-15T17:42:06.202Z,12.50
2017-12-15T17:44:34.866Z,12.50
2017-12-15T17:47:04.489Z,12.50
2017-12-15T17:49:34.901Z,12.60
2017-12-15T17:52:03.736Z,12.70
2017-12-15T17:54:32.405Z,12.70
2017-12-15T17:57:01.190Z,12.70
2017-12-15T17:59:29.838Z,12.70
2017-12-15T18:01:58.473Z,12.60
2017-12-15T18:04:27.114Z,12.60
2017-12-15T18:06:55.758Z,12.60
2017-12-15T18:09:25.224Z,12.70
2017-12-15T18:11:53.882Z,12.70
2017-12-15T18:14:22.803Z,12.60
2017-12-15T18:16:51.543Z,12.60
2017-12-15T18:19:21.036Z,12.70
2017-12-15T18:21:50.511Z,12.70
2017-12-15T18:24:19.180Z,12.60
2017-12-15T18:26:48.900Z,12.70
2017-12-15T18:29:17.678Z,12.70
2017-12-15T18:31:46.345Z,12.60
2017-12-15T18:34:15.076Z,12.60
2017-12-15T18:36:44.152Z,12.60
2017-12-15T18:39:12.903Z,12.60
2017-12-15T18:41:41.626Z,12.60
2017-12-15T18:44:10.566Z,12.60
2017-12-15T18:46:40.030Z,12.70
2017-12-15T18:49:08.707Z,12.70
2017-12-15T18:51:37.499Z,12.70
2017-12-15T18:54:06.286Z,12.70
2017-12-15T18:56:35.181Z,12.70
2017-12-15T18:59:04.068Z,12.70
2017-12-15T19:01:32.961Z,12.60
2017-12-15T19:04:02.669Z,12.50
2017-12-15T19:06:31.561Z,12.50
2017-12-15T19:09:01.273Z,12.50
2017-12-15T19:11:30.426Z,12.50
2017-12-15T19:14:00.239Z,12.50
2017-12-15T19:16:29.746Z,12.50
2017-12-15T19:18:58.679Z,12.50
2017-12-15T19:21:27.377Z,12.60
2017-12-15T19:23:57.076Z,12.60
2017-12-15T19:26:25.983Z,12.60
2017-12-15T19:28:55.682Z,12.50
2017-12-15T19:31:24.567Z,12.50
2017-12-15T19:33:53.461Z,12.40
2017-12-15T19:36:22.352Z,12.40
2017-12-15T19:38:51.241Z,12.30
2017-12-15T19:41:19.974Z,12.40
2017-12-15T19:43:48.719Z,12.30
2017-12-15T19:46:17.915Z,12.20
2017-12-15T19:48:47.012Z,12.20
2017-12-15T19:51:15.901Z,12.20
2017-12-15T19:53:45.405Z,12.20
2017-12-15T19:56:14.301Z,12.20
2017-12-15T19:58:43.289Z,12.10
2017-12-15T20:01:12.179Z,12.10
2017-12-15T20:03:41.071Z,12.00
2017-12-15T20:06:10.167Z,12.00
2017-12-15T20:08:39.059Z,12.00
2017-12-15T20:11:07.951Z,12.00
2017-12-15T20:13:36.840Z,12.00
2017-12-15T20:16:05.936Z,11.90
2017-12-15T20:18:34.826Z,11.90
2017-12-15T20:21:03.725Z,11.90
2017-12-15T20:23:32.610Z,11.90
2017-12-15T20:28:36.126Z,11.80
2017-12-15T20:31:05.016Z,11.70
2017-12-15T20:33:33.913Z,11.70
2017-12-15T20:36:02.800Z,11.60
2017-12-15T20:38:32.409Z,11.60
2017-12-15T20:41:01.314Z,11.60
2017-12-15T20:43:30.241Z,11.50
2017-12-15T20:45:58.979Z,11.40
2017-12-15T20:48:27.876Z,11.50
2017-12-15T20:50:56.762Z,11.50
2017-12-15T20:53:25.586Z,11.40
2017-12-15T20:55:54.334Z,11.50
2017-12-15T20:58:23.021Z,11.50
2017-12-15T21:00:52.322Z,11.40
2017-12-15T21:03:21.215Z,11.40
2017-12-15T21:05:50.112Z,11.50
2017-12-15T21:08:18.998Z,11.40
2017-12-15T21:10:47.888Z,11.40
2017-12-15T21:13:16.779Z,11.40
2017-12-15T21:15:45.669Z,11.40
2017-12-15T21:18:14.563Z,11.40
2017-12-15T21:20:43.348Z,11.50
2017-12-15T21:23:12.238Z,11.50
2017-12-15T21:25:41.130Z,11.50
2017-12-15T21:28:10.020Z,11.50
2017-12-15T21:30:38.811Z,11.50
2017-12-15T21:33:07.495Z,11.50
2017-12-15T21:35:36.185Z,11.50
2017-12-15T21:38:05.073Z,11.50
2017-12-15T21:40:33.963Z,11.40
2017-12-15T21:43:02.666Z,11.40
2017-12-15T21:45:31.541Z,11.40
2017-12-15T21:48:00.433Z,11.30
2017-12-15T21:50:29.227Z,11.30
2017-12-15T21:52:58.113Z,11.30
2017-12-15T21:55:27.009Z,11.20
2017-12-15T21:57:55.690Z,11.20
2017-12-15T22:00:24.479Z,11.20
2017-12-15T22:02:54.187Z,11.10
2017-12-15T22:05:23.079Z,11.10
2017-12-15T22:07:51.867Z,11.00
2017-12-15T22:10:20.554Z,11.00
2017-12-15T22:12:49.248Z,11.00
2017-12-15T22:15:18.138Z,11.00
2017-12-15T22:17:47.026Z,11.00
2017-12-15T22:20:15.814Z,11.00
2017-12-15T22:22:44.701Z,10.90
2017-12-15T22:25:13.541Z,10.80
2017-12-15T22:27:43.917Z,10.80
2017-12-15T22:30:12.818Z,10.80
2017-12-15T22:32:41.596Z,10.80
2017-12-15T22:35:10.285Z,10.80
2017-12-15T22:37:39.176Z,10.70
2017-12-15T22:40:08.066Z,10.80
2017-12-15T22:42:37.777Z,11.00
2017-12-15T22:45:06.667Z,11.00
2017-12-15T22:47:36.536Z,11.00
2017-12-15T22:50:05.478Z,11.00
2017-12-15T22:52:34.363Z,11.00
2017-12-15T22:55:03.261Z,11.00
2017-12-15T22:57:32.350Z,11.00
2017-12-15T23:00:01.043Z,10.90
2017-12-15T23:02:31.569Z,10.80
2017-12-15T23:05:00.456Z,10.80
2017-12-15T23:07:29.364Z,10.60
2017-12-15T23:09:58.410Z,10.60
2017-12-15T23:12:27.344Z,10.60
2017-12-15T23:14:57.044Z,10.60
2017-12-15T23:17:25.887Z,10.60
2017-12-15T23:19:54.894Z,10.60
2017-12-15T23:22:23.617Z,10.60
2017-12-15T23:24:52.405Z,10.70
2017-12-15T23:27:21.496Z,10.70
2017-12-15T23:29:50.296Z,10.70
2017-12-15T23:32:18.977Z,10.60
2017-12-15T23:34:47.866Z,10.60
2017-12-15T23:37:16.551Z,10.50
2017-12-15T23:39:45.450Z,10.40
2017-12-15T23:42:14.443Z,10.50
2017-12-15T23:44:43.331Z,10.40
2017-12-15T23:47:12.229Z,10.30
2017-12-15T23:49:41.011Z,10.20
2017-12-15T23:52:09.903Z,10.30
2017-12-15T23:54:51.287Z,10.20
2017-12-15T23:57:20.793Z,10.30
2017-12-15T23:59:49.476Z,10.30
